Abraham Bay, Bahamas

6:02 PM EDT on March 31, 2015 (GMT -0400)
Providenciales International | | Change Station
CLOSE
Current Station
Airport
Location: Providenciales,
Elevation: 16 ft
Nearby Weather Stations

Elev 16 ft 21.77 °N, 72.27 °W | Updated 2 hours ago

Mostly Cloudy
Mostly Cloudy
79 °F
Feels Like 79 °F
N
14
Wind Variable Wind from NNE

Today
High -- | Low -- °F
--% Chance of Precip.
Yesterday
High -- | Low -- °F
Precip. -- in
6:45 AM 7:06 PM
Waxing Gibbous, 89% visible
Pressure 30.01 in
Visibility 6.2 miles
Clouds Mostly Cloudy 3000 ft
Dew Point 64 °F
Humidity 61%
Rainfall 0.00 in
Snow Depth Not available.
UV 4 out of 12
Pollen Not available.
Air Quality Not available.
Flu Activity Not available.
METAR MBPV 312000Z 02012KT 9999 BKN030 26/18 Q1016

More Conditions Fewer Conditions

Pressure 30.01 in
Visibility 6.2 miles
Clouds Mostly Cloudy 3000 ft
Dew Point 64 °F
Humidity 61%
Rainfall 0.00 in
Snow Depth Not available.
UV 4 out of 12
Pollen Not available.
Air Quality Not available.
Flu Activity Not available.
METAR MBPV 312000Z 02012KT 9999 BKN030 26/18 Q1016

More Conditions Fewer Conditions

10-Day Weather Forecast

Almanac

Astronomy

Mar. 31, 2015 Rise Set
Actual Time
Civil Twilight
Nautical Twilight
Astronomical Twilight
Moon
Length of Visible Light
Length of Day
Tomorrow will be .
, % of the Moon is Illuminated

Today's Extremes

Country Highs Country Lows

Community

WunderPhotos

Upload Photos

1,809,849 photos uploaded!

WunderBlogs® & News

Nearby

Air Quality

  Air Quality AQ Index Pollutant
Not available.

Snow Depth

Station Depth Elevation

Earthquake Activity

City Distance Mag. Time & Date
Minimum magnitude displayed is 2.5.

Coastal Water Temperatures

Place Temperature

Stations

Nearby Weather Stations

Station Location Temp. Windchill Dew Point Humidity Wind Precip. Elev Updated Type